Time;durP1;ratioP1;P1;durP2;ratioP2;P2;SDS_P1;SDS_P2;PMS_P1;PMS_P2;Temp;Humidity;BMP_temperature;BMP_pressure;BME280_temperature;BME280_humidity;BME280_pressure;Samples;Min_cycle;Max_cycle;Signal;HPM_P1;HPM_P2
2023/02/23 00:01:18;;;;;;;103.45;69.22;;;14.30;1.00;;;;;;5095336;28;20131;-58
2023/02/23 00:03:44;;;;;;;101.00;66.55;;;14.40;1.00;;;;;;5094939;28;20141;-58
2023/02/23 00:06:11;;;;;;;101.50;67.90;;;14.40;1.00;;;;;;5107023;28;20036;-58
2023/02/23 00:08:37;;;;;;;100.43;67.22;;;14.40;1.00;;;;;;5110361;28;20046;-58
2023/02/23 00:11:07;;;;;;;102.15;68.95;;;14.40;1.00;;;;;;5094701;28;20078;-58
2023/02/23 00:13:36;;;;;;;106.78;70.70;;;14.30;1.00;;;;;;5094774;28;20020;-58
2023/02/23 00:16:12;;;;;;;99.55;65.32;;;14.30;1.00;;;;;;5093305;28;20028;-58
2023/02/23 00:18:44;;;;;;;93.30;62.67;;;14.30;1.00;;;;;;5100247;28;20057;-58
2023/02/23 00:21:13;;;;;;;95.22;63.30;;;14.40;1.00;;;;;;5113593;28;20096;-58
2023/02/23 00:23:46;;;;;;;98.53;62.22;;;14.30;1.00;;;;;;5098924;28;20111;-58
2023/02/23 00:26:12;;;;;;;93.35;63.17;;;14.30;1.00;;;;;;5094774;28;20020;-58
2023/02/23 00:28:41;;;;;;;98.60;63.85;;;14.30;1.00;;;;;;5093763;28;20032;-58
2023/02/23 00:31:07;;;;;;;91.00;61.25;;;14.20;1.00;;;;;;5105662;28;20031;-58
2023/02/23 00:33:33;;;;;;;96.43;63.20;;;14.20;1.00;;;;;;5114721;28;20487;-58
2023/02/23 00:36:11;;;;;;;94.72;64.38;;;14.20;1.00;;;;;;5104081;28;20121;-58
2023/02/23 00:38:38;;;;;;;94.63;62.20;;;14.20;1.00;;;;;;5110926;28;20040;-57
2023/02/23 00:41:10;;;;;;;93.20;61.97;;;14.20;1.00;;;;;;5114481;28;20026;-58
2023/02/23 00:43:38;;;;;;;90.75;61.47;;;14.20;1.00;;;;;;5095034;28;20481;-58
2023/02/23 00:46:04;;;;;;;92.88;62.15;;;14.20;1.00;;;;;;5094295;28;20051;-58
2023/02/23 00:48:34;;;;;;;92.47;60.22;;;14.20;1.00;;;;;;5094212;28;20034;-58
2023/02/23 00:51:04;;;;;;;100.18;64.93;;;14.20;1.00;;;;;;5093805;28;20069;-58
2023/02/23 00:53:31;;;;;;;100.22;65.05;;;14.20;1.00;;;;;;5111674;28;20089;-58
2023/02/23 00:55:57;;;;;;;93.78;64.32;;;14.20;1.00;;;;;;5104475;28;20465;-58
2023/02/23 00:58:24;;;;;;;97.43;64.80;;;14.20;1.00;;;;;;5093817;28;20043;-58
2023/02/23 01:00:51;;;;;;;95.85;64.63;;;14.20;1.00;;;;;;5094079;28;20050;-58
2023/02/23 01:03:17;;;;;;;99.35;67.13;;;14.20;1.00;;;;;;5095002;28;20036;-58
2023/02/23 01:05:43;;;;;;;99.93;64.35;;;14.20;1.00;;;;;;5100445;28;20476;-58
2023/02/23 01:08:11;;;;;;;101.38;65.95;;;14.30;1.00;;;;;;5105343;28;20102;-58
2023/02/23 01:10:41;;;;;;;93.13;62.90;;;14.30;1.00;;;;;;5094062;28;20073;-58
2023/02/23 01:13:09;;;;;;;97.22;63.70;;;14.20;1.00;;;;;;5102698;28;20031;-58
2023/02/23 01:15:40;;;;;;;95.57;63.88;;;14.20;1.00;;;;;;5113864;28;20462;-57
2023/02/23 01:18:06;;;;;;;96.97;64.00;;;14.20;1.00;;;;;;5104397;28;20044;-58
2023/02/23 01:20:34;;;;;;;91.45;61.95;;;14.20;1.00;;;;;;5093139;28;20365;-58
2023/02/23 01:23:01;;;;;;;92.40;61.45;;;14.20;1.00;;;;;;5093196;28;20017;-58
2023/02/23 01:25:30;;;;;;;97.00;63.22;;;14.20;1.00;;;;;;5092021;28;20149;-58
2023/02/23 01:27:55;;;;;;;97.55;63.55;;;14.20;1.00;;;;;;5093393;28;20032;-58
2023/02/23 01:30:21;;;;;;;88.82;63.25;;;14.20;1.00;;;;;;5093002;28;20032;-58
2023/02/23 01:32:47;;;;;;;94.00;63.53;;;14.20;1.00;;;;;;5093200;28;20110;-58
2023/02/23 01:35:13;;;;;;;92.82;65.18;;;14.20;1.00;;;;;;5093181;28;20051;-57
2023/02/23 01:37:41;;;;;;;92.78;63.95;;;14.20;1.00;;;;;;5093283;28;20351;-58
2023/02/23 01:40:14;;;;;;;86.00;59.33;;;14.20;1.00;;;;;;5092649;28;20108;-58
2023/02/23 01:42:42;;;;;;;91.63;61.35;;;14.20;1.00;;;;;;5091852;28;20023;-58
2023/02/23 01:45:25;;;;;;;92.85;61.72;;;14.30;1.00;;;;;;5093352;28;20032;-58
2023/02/23 01:47:55;;;;;;;91.55;62.00;;;14.20;1.00;;;;;;5093435;28;20027;-58
2023/02/23 01:50:22;;;;;;;92.38;61.28;;;14.20;1.00;;;;;;5092197;28;20124;-58
2023/02/23 02:06:20;;;;;;;97.63;63.78;;;14.20;1.00;;;;;;5092809;28;20119;-57
2023/02/23 02:09:09;;;;;;;98.30;63.67;;;14.10;1.00;;;;;;5091476;28;20484;-58
2023/02/23 02:11:35;;;;;;;98.10;62.78;;;14.20;1.00;;;;;;5092868;28;20039;-58
2023/02/23 02:14:04;;;;;;;95.35;62.92;;;14.20;1.00;;;;;;5092160;28;20048;-58
2023/02/23 02:16:46;;;;;;;98.63;64.38;;;14.20;1.00;;;;;;5110855;28;20032;-57
2023/02/23 02:19:56;;;;;;;97.43;61.55;;;14.10;1.00;;;;;;5111703;28;20027;-57
2023/02/23 02:22:44;;;;;;;100.80;65.38;;;14.10;1.00;;;;;;5095023;28;20024;-58
2023/02/23 02:25:18;;;;;;;104.43;65.78;;;14.10;1.00;;;;;;5112526;28;20066;-57
2023/02/23 02:28:16;;;;;;;102.72;66.30;;;14.00;1.00;;;;;;5112194;28;20580;-57
2023/02/23 02:31:19;;;;;;;101.20;65.82;;;14.00;1.00;;;;;;5112155;28;20068;-57
2023/02/23 02:34:24;;;;;;;97.75;67.40;;;14.10;1.00;;;;;;5112235;28;20026;-57
2023/02/23 02:37:32;;;;;;;101.70;67.07;;;14.00;1.00;;;;;;5095004;28;20119;-58
2023/02/23 02:40:14;;;;;;;102.63;66.15;;;13.90;1.00;;;;;;5090052;28;20123;-58
2023/02/23 02:43:10;;;;;;;102.57;66.28;;;13.90;1.00;;;;;;5091527;28;20038;-57
2023/02/23 02:45:58;;;;;;;104.55;66.75;;;14.00;1.00;;;;;;5091438;28;20036;-57
2023/02/23 02:48:43;;;;;;;105.28;68.80;;;14.00;1.00;;;;;;5091402;28;20052;-58
2023/02/23 02:51:17;;;;;;;107.88;68.55;;;13.90;1.00;;;;;;5091269;28;20044;-57
2023/02/23 02:53:46;;;;;;;100.72;65.22;;;13.90;1.00;;;;;;5095473;28;20024;-58
2023/02/23 02:56:18;;;;;;;105.28;70.53;;;14.00;1.00;;;;;;5095388;28;20027;-58
2023/02/23 02:58:44;;;;;;;112.85;70.40;;;13.90;1.00;;;;;;5095685;28;20044;-58
2023/02/23 04:19:32;;;;;;;119.07;78.05;;;13.90;1.00;;;;;;5094885;28;20032;-58
2023/02/23 04:21:58;;;;;;;120.72;77.47;;;13.80;1.00;;;;;;5093888;28;20039;-58
2023/02/23 04:24:23;;;;;;;113.85;75.10;;;13.80;1.00;;;;;;5094677;28;20110;-58
2023/02/23 04:26:49;;;;;;;113.47;74.63;;;13.80;1.00;;;;;;5094502;28;20028;-58
2023/02/23 04:29:14;;;;;;;120.13;77.47;;;13.90;1.00;;;;;;5094600;28;20113;-58
2023/02/23 04:31:40;;;;;;;115.95;76.35;;;13.90;1.00;;;;;;5094733;28;20381;-58
2023/02/23 04:34:07;;;;;;;123.88;78.57;;;13.90;1.00;;;;;;5094291;28;20575;-58
2023/02/23 04:36:32;;;;;;;123.35;79.07;;;13.80;1.00;;;;;;5094478;28;20020;-58
2023/02/23 04:38:58;;;;;;;122.10;78.90;;;13.90;1.00;;;;;;5094126;28;20397;-58
2023/02/23 04:41:24;;;;;;;124.00;77.45;;;13.80;1.00;;;;;;5094571;28;20024;-58
2023/02/23 04:43:49;;;;;;;126.15;78.65;;;13.80;1.00;;;;;;5093998;28;20040;-58
2023/02/23 04:46:15;;;;;;;125.57;81.18;;;13.80;1.00;;;;;;5094080;28;20031;-57
2023/02/23 04:48:41;;;;;;;129.07;81.68;;;13.80;1.00;;;;;;5094364;28;20461;-58
2023/02/23 04:51:06;;;;;;;124.25;81.57;;;13.80;1.00;;;;;;5093993;28;20139;-58
2023/02/23 04:53:33;;;;;;;131.07;79.88;;;13.70;1.00;;;;;;5094182;28;20036;-58
2023/02/23 04:55:59;;;;;;;122.70;77.80;;;13.70;1.00;;;;;;5092523;28;20024;-58
2023/02/23 04:58:25;;;;;;;125.97;80.00;;;13.70;1.00;;;;;;5092584;28;20608;-59
2023/02/23 05:00:51;;;;;;;128.80;80.60;;;13.60;1.00;;;;;;5094155;28;20149;-58
2023/02/23 05:03:17;;;;;;;131.82;83.88;;;13.60;1.00;;;;;;5094103;28;20497;-58
2023/02/23 05:05:43;;;;;;;136.32;82.55;;;13.70;1.00;;;;;;5093712;28;20374;-58
2023/02/23 05:08:09;;;;;;;129.95;83.72;;;13.60;1.00;;;;;;5093895;28;20457;-59
2023/02/23 05:10:35;;;;;;;136.48;84.38;;;13.50;1.00;;;;;;5093818;28;20028;-59
2023/02/23 05:13:01;;;;;;;130.63;84.45;;;13.50;1.00;;;;;;5093500;28;20024;-58
2023/02/23 05:15:27;;;;;;;127.90;82.22;;;13.50;1.00;;;;;;5093482;28;20500;-58
2023/02/23 05:17:54;;;;;;;130.90;81.10;;;13.50;1.00;;;;;;5093742;28;20097;-58
2023/02/23 05:20:21;;;;;;;133.65;84.25;;;13.40;1.00;;;;;;5093702;28;20044;-58
2023/02/23 05:22:47;;;;;;;126.75;79.63;;;13.40;1.00;;;;;;5093700;28;20081;-58
2023/02/23 05:25:13;;;;;;;126.18;79.80;;;13.50;1.00;;;;;;5093651;28;20028;-59
2023/02/23 05:27:39;;;;;;;127.55;81.35;;;13.50;1.00;;;;;;5093591;28;20063;-58
2023/02/23 05:30:06;;;;;;;132.98;82.00;;;13.50;1.00;;;;;;5093600;28;20028;-58
2023/02/23 05:32:33;;;;;;;121.93;79.97;;;13.50;1.00;;;;;;5093195;28;20114;-58
2023/02/23 05:34:59;;;;;;;130.55;83.15;;;13.50;1.00;;;;;;5093149;28;20027;-58
2023/02/23 05:37:25;;;;;;;136.55;83.13;;;13.50;1.00;;;;;;5093258;28;20156;-58
2023/02/23 05:39:51;;;;;;;131.68;82.80;;;13.50;1.00;;;;;;5093363;28;20032;-58
2023/02/23 05:42:17;;;;;;;134.80;86.30;;;13.50;1.00;;;;;;5093222;28;20020;-58
2023/02/23 05:44:42;;;;;;;131.48;85.88;;;13.50;1.00;;;;;;5093124;28;20024;-57
2023/02/23 05:47:09;;;;;;;133.77;82.80;;;13.40;1.00;;;;;;5099560;28;20024;-58
2023/02/23 05:49:40;;;;;;;136.48;85.90;;;13.40;1.00;;;;;;5113590;28;20020;-59
2023/02/23 05:52:06;;;;;;;130.43;81.97;;;13.40;1.00;;;;;;5113107;28;20055;-59
2023/02/23 05:54:31;;;;;;;134.00;82.70;;;13.40;1.00;;;;;;5113386;28;20028;-59
2023/02/23 05:56:57;;;;;;;132.40;85.07;;;13.40;1.00;;;;;;5113181;28;20020;-58
2023/02/23 05:59:23;;;;;;;129.82;83.60;;;13.30;1.00;;;;;;5112954;28;20118;-58
2023/02/23 06:01:48;;;;;;;130.27;83.18;;;13.30;1.00;;;;;;5112454;28;20157;-58
2023/02/23 06:04:16;;;;;;;137.35;84.75;;;13.30;1.00;;;;;;5113002;28;20023;-58
2023/02/23 06:06:42;;;;;;;131.98;81.82;;;13.20;1.00;;;;;;5111672;28;20023;-58
2023/02/23 06:09:07;;;;;;;134.32;83.07;;;13.30;1.00;;;;;;5113239;28;20038;-58
2023/02/23 06:11:33;;;;;;;126.60;81.63;;;13.30;1.00;;;;;;5113319;28;20126;-58
2023/02/23 06:13:59;;;;;;;134.65;83.40;;;13.30;1.00;;;;;;5113147;28;20102;-59
2023/02/23 06:16:26;;;;;;;135.48;83.35;;;13.40;1.00;;;;;;5112830;28;20054;-58
2023/02/23 06:18:51;;;;;;;130.15;82.68;;;13.40;1.00;;;;;;5112797;28;20063;-58
2023/02/23 06:21:17;;;;;;;128.55;81.97;;;13.40;1.00;;;;;;5112747;28;20476;-59
2023/02/23 06:23:43;;;;;;;134.57;85.07;;;13.40;1.00;;;;;;5112732;28;20059;-58
2023/02/23 06:26:08;;;;;;;123.88;78.78;;;13.40;1.00;;;;;;5112743;28;20019;-58
2023/02/23 06:28:34;;;;;;;129.00;79.50;;;13.40;1.00;;;;;;5112838;28;20058;-58
2023/02/23 06:31:00;;;;;;;145.13;81.30;;;13.50;1.00;;;;;;5112743;28;20020;-58
2023/02/23 06:33:26;;;;;;;130.15;82.57;;;13.50;1.00;;;;;;5113017;28;20080;-56
2023/02/23 06:35:53;;;;;;;134.95;82.05;;;13.40;1.00;;;;;;5112612;28;20415;-58
2023/02/23 06:38:19;;;;;;;131.95;82.55;;;13.40;1.00;;;;;;5112658;28;20059;-58
2023/02/23 06:40:45;;;;;;;126.30;77.95;;;13.50;1.00;;;;;;5112537;28;20055;-59
2023/02/23 06:43:10;;;;;;;126.13;79.65;;;13.50;1.00;;;;;;5112439;28;20062;-58
2023/02/23 06:45:36;;;;;;;127.80;81.72;;;13.50;1.00;;;;;;5112819;28;20016;-58
2023/02/23 06:48:02;;;;;;;127.93;81.03;;;13.50;1.00;;;;;;5112817;28;20358;-58
2023/02/23 06:50:27;;;;;;;129.70;79.07;;;13.50;1.00;;;;;;5112326;28;20500;-58
2023/02/23 06:52:55;;;;;;;127.03;77.22;;;13.60;1.00;;;;;;5112743;28;20030;-58
2023/02/23 06:55:21;;;;;;;121.90;79.47;;;13.60;1.00;;;;;;5112388;28;20028;-58
2023/02/23 06:57:48;;;;;;;123.53;77.53;;;13.70;1.00;;;;;;5112357;28;20096;-58
2023/02/23 07:00:16;;;;;;;120.53;79.03;;;13.60;1.00;;;;;;5111870;28;20107;-58
2023/02/23 07:02:42;;;;;;;121.05;77.57;;;13.60;1.00;;;;;;5112478;28;20019;-58
2023/02/23 07:05:09;;;;;;;121.28;78.43;;;13.60;1.00;;;;;;5112633;28;20020;-58
2023/02/23 07:07:35;;;;;;;121.13;80.25;;;13.70;1.00;;;;;;5112578;28;20027;-58
2023/02/23 07:10:00;;;;;;;119.53;78.93;;;13.60;1.00;;;;;;5112771;28;20038;-58
2023/02/23 07:12:26;;;;;;;124.90;76.70;;;13.70;1.00;;;;;;5112217;28;20061;-58
2023/02/23 07:14:52;;;;;;;120.75;76.13;;;13.80;1.00;;;;;;5112401;28;20054;-58
2023/02/23 07:17:17;;;;;;;117.97;77.65;;;13.80;1.00;;;;;;5112258;28;20016;-58
2023/02/23 07:19:43;;;;;;;120.05;75.95;;;13.80;1.00;;;;;;5112207;28;20503;-58
2023/02/23 07:22:09;;;;;;;115.25;74.68;;;13.80;1.00;;;;;;5112515;28;20103;-58
2023/02/23 07:24:35;;;;;;;115.18;72.93;;;13.90;1.00;;;;;;5112079;28;20024;-59
2023/02/23 07:27:00;;;;;;;125.30;74.55;;;13.80;1.00;;;;;;5112209;28;20019;-58
2023/02/23 07:29:29;;;;;;;121.63;76.30;;;13.90;1.00;;;;;;5112195;28;20099;-58
2023/02/23 07:31:54;;;;;;;115.15;73.18;;;13.90;1.00;;;;;;5110792;28;20023;-58
2023/02/23 07:34:20;;;;;;;114.57;72.40;;;13.90;1.00;;;;;;5110799;28;20130;-58
2023/02/23 07:36:46;;;;;;;118.85;74.28;;;14.00;1.00;;;;;;5112162;28;20089;-58
2023/02/23 07:39:11;;;;;;;113.72;72.80;;;14.00;1.00;;;;;;5113892;28;20173;-58
2023/02/23 07:41:43;;;;;;;114.47;75.15;;;14.00;1.00;;;;;;5115643;28;20044;-58
2023/02/23 07:44:09;;;;;;;113.05;73.07;;;14.00;1.00;;;;;;5114822;28;20050;-58
2023/02/23 07:46:34;;;;;;;110.15;69.65;;;14.00;1.00;;;;;;5115810;28;20433;-58
2023/02/23 07:49:00;;;;;;;110.90;72.47;;;14.00;1.00;;;;;;5115394;28;20031;-58
2023/02/23 07:51:25;;;;;;;109.45;70.65;;;14.00;1.00;;;;;;5115898;28;20122;-58
2023/02/23 07:53:51;;;;;;;118.38;71.60;;;13.90;1.00;;;;;;5113633;28;20036;-57
2023/02/23 07:56:17;;;;;;;108.03;70.97;;;14.00;1.00;;;;;;5115515;28;20020;-58
2023/02/23 07:58:44;;;;;;;105.93;70.22;;;14.00;1.00;;;;;;5115723;28;20036;-58
2023/02/23 08:01:12;;;;;;;112.90;70.20;;;14.00;1.00;;;;;;5115386;28;20072;-58
2023/02/23 08:03:38;;;;;;;110.45;69.50;;;14.00;1.00;;;;;;5113965;28;20032;-58
2023/02/23 08:06:04;;;;;;;112.43;72.90;;;14.00;1.00;;;;;;5114034;28;20028;-58
2023/02/23 08:08:29;;;;;;;111.70;70.07;;;14.00;1.00;;;;;;5113954;28;20106;-58
2023/02/23 08:11:03;;;;;;;115.28;69.55;;;14.10;1.00;;;;;;5115452;28;20130;-58
2023/02/23 08:13:30;;;;;;;105.25;67.97;;;14.10;1.00;;;;;;5115237;28;20027;-59
2023/02/23 08:15:56;;;;;;;109.88;70.03;;;14.10;1.00;;;;;;5113625;28;20067;-58
2023/02/23 08:18:23;;;;;;;115.40;73.53;;;14.10;1.00;;;;;;5115741;28;20373;-58
2023/02/23 08:20:49;;;;;;;109.75;69.82;;;14.10;1.00;;;;;;5114966;28;20039;-58
2023/02/23 08:23:16;;;;;;;117.18;74.88;;;14.10;1.00;;;;;;5115221;28;20023;-58
2023/02/23 08:25:43;;;;;;;114.47;73.93;;;14.10;1.00;;;;;;5115286;28;20048;-58
2023/02/23 08:28:08;;;;;;;114.80;74.18;;;14.10;1.00;;;;;;5115244;28;20032;-58
2023/02/23 08:30:34;;;;;;;116.22;74.82;;;14.10;1.00;;;;;;5114868;28;20024;-58
2023/02/23 08:33:00;;;;;;;110.43;71.80;;;14.20;1.00;;;;;;5114890;28;20031;-59
2023/02/23 08:35:26;;;;;;;115.05;71.40;;;14.20;1.00;;;;;;5114667;28;20066;-58
2023/02/23 08:37:52;;;;;;;107.28;69.80;;;14.20;1.00;;;;;;5113280;28;20335;-57
2023/02/23 08:40:19;;;;;;;113.90;72.30;;;14.20;1.00;;;;;;5115005;28;20053;-58
2023/02/23 08:42:47;;;;;;;109.78;69.93;;;14.20;1.00;;;;;;5102510;28;20035;-58
2023/02/23 08:45:14;;;;;;;104.82;69.50;;;14.20;1.00;;;;;;5094173;28;20025;-57
2023/02/23 08:47:40;;;;;;;107.30;70.85;;;14.30;1.00;;;;;;5092771;28;20474;-57
2023/02/23 08:50:06;;;;;;;105.55;68.85;;;14.30;1.00;;;;;;5093473;28;20035;-57
2023/02/23 08:52:33;;;;;;;113.97;72.97;;;14.30;1.00;;;;;;5094111;28;20036;-58
2023/02/23 08:54:59;;;;;;;115.15;74.53;;;14.40;1.00;;;;;;5107330;28;20020;-57
2023/02/23 08:57:43;;;;;;;108.72;71.88;;;14.40;1.00;;;;;;5093575;28;20153;-59
2023/02/23 09:00:15;;;;;;;102.03;68.70;;;14.40;1.00;;;;;;5093790;28;20043;-58
2023/02/23 09:02:47;;;;;;;107.65;68.07;;;14.40;1.00;;;;;;5107346;28;20249;-58
2023/02/23 09:05:13;;;;;;;109.53;71.78;;;14.50;1.00;;;;;;5114439;28;20020;-58
2023/02/23 09:07:39;;;;;;;110.38;69.82;;;14.50;1.00;;;;;;5114464;28;20451;-58
2023/02/23 09:10:05;;;;;;;109.72;68.63;;;14.60;1.00;;;;;;5114092;28;20024;-58
2023/02/23 09:12:31;;;;;;;103.45;68.28;;;14.50;1.00;;;;;;5114163;28;20148;-58
2023/02/23 09:14:57;;;;;;;105.03;68.57;;;14.50;1.00;;;;;;5114158;28;20532;-58
2023/02/23 09:17:22;;;;;;;105.10;68.07;;;14.50;1.00;;;;;;5113977;28;20476;-58
2023/02/23 09:19:49;;;;;;;100.00;65.60;;;14.50;1.00;;;;;;5113827;28;20381;-57
2023/02/23 09:22:17;;;;;;;104.20;67.47;;;14.60;1.00;;;;;;5095446;28;20482;-58
2023/02/23 09:24:43;;;;;;;102.63;70.55;;;14.70;1.00;;;;;;5114067;28;20129;-58
2023/02/23 09:27:11;;;;;;;110.68;70.88;;;14.80;1.00;;;;;;5113823;28;20030;-58
2023/02/23 09:29:40;;;;;;;105.47;69.28;;;14.80;1.00;;;;;;5113794;28;20028;-58
2023/02/23 09:32:06;;;;;;;106.18;71.38;;;14.90;1.00;;;;;;5112425;28;20028;-58
2023/02/23 09:34:31;;;;;;;101.05;65.07;;;15.00;1.00;;;;;;5111879;28;20039;-58
2023/02/23 09:36:57;;;;;;;100.45;67.20;;;15.00;1.00;;;;;;5114598;28;20019;-58
2023/02/23 09:39:23;;;;;;;114.65;72.90;;;15.10;1.00;;;;;;5113475;28;20461;-58
2023/02/23 09:41:48;;;;;;;109.43;69.80;;;15.10;1.00;;;;;;5113633;28;20071;-59
2023/02/23 09:44:20;;;;;;;105.88;68.43;;;15.20;1.00;;;;;;5113372;28;20388;-58
2023/02/23 09:47:07;;;;;;;102.72;70.25;;;15.20;1.00;;;;;;5113459;28;20035;-58
2023/02/23 09:49:37;;;;;;;104.38;66.68;;;15.20;1.00;;;;;;5113508;28;20012;-58
2023/02/23 09:52:09;;;;;;;97.65;65.82;;;15.20;1.00;;;;;;5113269;28;20104;-58
2023/02/23 09:54:35;;;;;;;100.93;65.65;;;15.30;1.00;;;;;;5113174;28;20027;-58
2023/02/23 09:57:03;;;;;;;96.53;62.40;;;15.40;1.00;;;;;;5113175;28;20030;-58
2023/02/23 09:59:30;;;;;;;102.90;66.70;;;15.30;1.00;;;;;;5113235;28;20118;-58
2023/02/23 10:02:14;;;;;;;96.90;67.25;;;15.40;1.00;;;;;;5112332;28;20030;-58
2023/02/23 10:04:47;;;;;;;104.05;66.32;;;15.50;1.00;;;;;;5110280;28;20059;-58
2023/02/23 10:07:19;;;;;;;100.10;65.65;;;15.70;1.00;;;;;;5093057;28;20024;-58
2023/02/23 10:10:01;;;;;;;96.82;66.78;;;15.70;1.00;;;;;;5092494;28;20107;-58
2023/02/23 10:12:49;;;;;;;100.55;64.95;;;15.70;1.00;;;;;;5092422;28;20359;-59
2023/02/23 10:15:26;;;;;;;100.68;66.03;;;15.70;1.00;;;;;;5092047;28;20028;-58
2023/02/23 10:18:02;;;;;;;96.80;62.42;;;15.90;1.00;;;;;;5092436;28;20527;-57
2023/02/23 10:20:40;;;;;;;96.13;67.57;;;15.90;1.00;;;;;;5091091;28;20397;-58
2023/02/23 10:23:11;;;;;;;92.55;63.80;;;16.10;1.00;;;;;;5092702;28;20028;-58
2023/02/23 10:25:43;;;;;;;92.38;60.90;;;16.40;1.00;;;;;;5092421;28;20047;-58
2023/02/23 10:28:25;;;;;;;86.75;57.75;;;16.40;1.00;;;;;;5092333;28;20118;-58
2023/02/23 10:30:53;;;;;;;88.65;58.13;;;16.40;1.00;;;;;;5092369;28;20024;-57
2023/02/23 10:33:26;;;;;;;84.88;59.40;;;16.40;1.00;;;;;;5092281;28;20050;-58
2023/02/23 10:35:56;;;;;;;74.22;51.53;;;16.30;1.00;;;;;;5092073;28;20031;-58
2023/02/23 10:38:22;;;;;;;83.78;52.78;;;16.20;1.00;;;;;;5092398;28;20040;-58
2023/02/23 10:40:55;;;;;;;81.25;50.67;;;16.20;1.00;;;;;;5092976;28;20044;-58
2023/02/23 10:43:20;;;;;;;76.75;50.50;;;16.10;1.00;;;;;;5092375;28;20030;-58
2023/02/23 10:45:51;;;;;;;78.50;50.13;;;16.00;1.00;;;;;;5092496;28;20052;-57
2023/02/23 10:48:23;;;;;;;69.57;47.08;;;16.00;1.00;;;;;;5092168;28;20024;-58
2023/02/23 10:50:51;;;;;;;64.53;43.78;;;16.00;1.00;;;;;;5091196;28;20067;-58
2023/02/23 10:53:25;;;;;;;60.17;41.30;;;16.00;1.00;;;;;;5092110;28;20074;-58
2023/02/23 10:56:05;;;;;;;59.97;39.55;;;15.90;1.00;;;;;;5091186;28;20024;-58
2023/02/23 10:58:48;;;;;;;55.80;37.38;;;16.00;1.00;;;;;;5092050;28;20037;-58
2023/02/23 11:01:35;;;;;;;60.13;39.10;;;16.00;1.00;;;;;;5092266;28;20054;-58
2023/02/23 11:04:21;;;;;;;52.83;36.38;;;16.00;1.00;;;;;;5092361;28;20128;-58
2023/02/23 11:06:48;;;;;;;53.95;36.22;;;15.90;1.00;;;;;;5092284;28;20051;-58
2023/02/23 11:09:24;;;;;;;47.90;32.72;;;15.90;1.00;;;;;;5092388;28;20027;-59
2023/02/23 11:12:01;;;;;;;46.95;31.90;;;15.80;1.00;;;;;;5091905;28;20024;-59
2023/02/23 11:14:29;;;;;;;46.78;32.22;;;15.70;1.00;;;;;;5095149;28;20086;-59
2023/02/23 11:16:57;;;;;;;46.80;32.10;;;15.60;1.00;;;;;;5096469;28;20032;-59
2023/02/23 11:19:36;;;;;;;48.40;30.20;;;15.80;1.00;;;;;;5094303;28;20138;-59
2023/02/23 11:22:03;;;;;;;46.05;31.90;;;15.70;1.00;;;;;;5094359;28;20177;-59
2023/02/23 11:24:35;;;;;;;44.30;29.35;;;15.80;1.00;;;;;;5095866;28;20024;-58
2023/02/23 11:27:05;;;;;;;45.38;29.58;;;15.90;1.00;;;;;;5096436;28;20043;-58
2023/02/23 11:29:41;;;;;;;42.90;29.60;;;16.00;1.00;;;;;;5095759;28;20053;-57
2023/02/23 11:32:19;;;;;;;43.25;31.25;;;16.00;1.00;;;;;;5095696;28;20101;-58
2023/02/23 11:34:48;;;;;;;40.83;29.98;;;16.10;1.00;;;;;;5095394;28;20021;-57
2023/02/23 11:37:17;;;;;;;40.65;26.08;;;16.20;1.00;;;;;;5114446;27;20059;-61
2023/02/23 11:39:57;;;;;;;34.47;24.17;;;16.30;1.00;;;;;;5115770;28;20485;-58
2023/02/23 11:42:32;;;;;;;40.15;24.90;;;16.40;1.00;;;;;;5114182;28;20023;-58
2023/02/23 11:45:02;;;;;;;38.90;27.10;;;16.40;1.00;;;;;;5115720;28;20068;-58
2023/02/23 11:47:30;;;;;;;38.90;27.65;;;16.40;1.00;;;;;;5115312;28;20098;-59
2023/02/23 11:49:56;;;;;;;36.88;25.50;;;16.60;1.00;;;;;;5115931;28;20031;-58
2023/02/23 11:52:24;;;;;;;34.53;24.70;;;16.60;1.00;;;;;;5115410;28;20400;-58
2023/02/23 11:55:04;;;;;;;38.05;25.95;;;16.70;1.00;;;;;;5115725;28;20384;-58
2023/02/23 11:57:33;;;;;;;39.92;26.73;;;16.70;1.00;;;;;;5096442;28;20035;-58
2023/02/23 12:00:10;;;;;;;40.97;28.70;;;16.80;1.00;;;;;;5110702;28;20074;-58
2023/02/23 12:02:50;;;;;;;45.47;30.20;;;16.80;1.00;;;;;;5094924;28;20062;-58
2023/02/23 12:05:32;;;;;;;40.00;28.55;;;16.90;1.00;;;;;;5095054;28;20534;-58
2023/02/23 12:08:04;;;;;;;41.63;29.63;;;17.00;1.00;;;;;;5094887;28;20414;-58
2023/02/23 12:10:42;;;;;;;39.63;29.08;;;17.10;1.00;;;;;;5095246;28;20032;-58
2023/02/23 12:13:19;;;;;;;42.67;30.30;;;17.20;1.00;;;;;;5095109;28;20047;-58
2023/02/23 12:15:54;;;;;;;41.47;27.63;;;17.20;1.00;;;;;;5094809;28;20024;-58
2023/02/23 12:18:33;;;;;;;41.17;27.65;;;17.30;1.00;;;;;;5094687;28;20039;-57
2023/02/23 12:21:12;;;;;;;37.72;25.60;;;17.40;1.00;;;;;;5094971;28;20024;-58
2023/02/23 12:23:41;;;;;;;35.95;26.33;;;17.30;1.00;;;;;;5095032;28;20028;-58
2023/02/23 12:26:20;;;;;;;39.67;26.83;;;17.30;1.00;;;;;;5093935;28;20031;-58
2023/02/23 12:29:09;;;;;;;36.28;26.40;;;17.10;1.00;;;;;;5094744;28;20027;-58
2023/02/23 12:31:41;;;;;;;38.53;25.08;;;16.90;1.00;;;;;;5110046;28;20020;-57
2023/02/23 12:34:57;;;;;;;34.55;24.52;;;16.90;1.00;;;;;;5094781;28;20351;-58
2023/02/23 12:37:26;;;;;;;34.83;26.63;;;16.90;1.00;;;;;;5051917;28;20605;-58
2023/02/23 12:40:01;;;;;;;35.72;24.35;;;16.80;1.00;;;;;;5051880;28;20133;-58
2023/02/23 12:42:43;;;;;;;32.88;24.35;;;16.80;1.00;;;;;;5078860;28;20106;-59
2023/02/23 12:45:31;;;;;;;39.85;24.33;;;16.90;1.00;;;;;;5094486;28;20039;-59
2023/02/23 12:48:03;;;;;;;32.92;24.95;;;16.90;1.00;;;;;;5094581;28;20099;-59
2023/02/23 12:50:43;;;;;;;35.45;25.33;;;16.90;1.00;;;;;;5094098;28;20354;-58
2023/02/23 12:53:17;;;;;;;37.63;26.13;;;16.90;1.00;;;;;;5093954;28;20490;-59
2023/02/23 12:55:46;;;;;;;42.67;27.98;;;17.00;1.00;;;;;;5094064;28;20024;-59
2023/02/23 12:58:32;;;;;;;39.25;27.58;;;17.00;1.00;;;;;;5093931;28;20111;-58
2023/02/23 13:01:15;;;;;;;46.17;29.40;;;17.00;1.00;;;;;;5094202;28;20072;-59
2023/02/23 13:03:56;;;;;;;39.13;27.33;;;17.10;1.00;;;;;;5093982;28;20059;-59
2023/02/23 13:06:29;;;;;;;38.08;26.70;;;17.10;1.00;;;;;;5103190;28;20103;-59
2023/02/23 13:09:06;;;;;;;37.38;27.60;;;17.20;1.00;;;;;;5114629;28;20031;-59
2023/02/23 13:12:05;;;;;;;36.47;26.92;;;17.30;1.00;;;;;;5114317;28;20035;-59
2023/02/23 13:14:38;;;;;;;38.78;28.38;;;17.30;1.00;;;;;;5114419;28;20042;-59
2023/02/23 13:17:15;;;;;;;37.53;27.30;;;17.20;1.00;;;;;;5114440;28;20053;-59
2023/02/23 13:19:49;;;;;;;37.53;28.52;;;17.30;1.00;;;;;;5114214;28;20092;-59
2023/02/23 13:22:24;;;;;;;40.97;29.05;;;17.50;1.00;;;;;;5113931;28;20541;-59
2023/02/23 13:24:50;;;;;;;;;;;17.50;1.00;;;;;;5114876;28;20031;-59
2023/02/23 13:27:26;;;;;;;36.67;27.25;;;17.50;1.00;;;;;;5114153;28;19908;-59
2023/02/23 13:29:54;;;;;;;42.67;28.23;;;17.60;1.00;;;;;;5112931;28;20035;-59
2023/02/23 13:32:30;;;;;;;32.92;26.95;;;17.60;1.00;;;;;;5113861;28;20019;-59
2023/02/23 13:35:02;;;;;;;34.13;25.75;;;17.80;1.00;;;;;;5113686;28;20076;-59
2023/02/23 13:37:47;;;;;;;34.28;27.70;;;17.80;1.00;;;;;;5115997;27;20457;-59
2023/02/23 13:40:45;;;;;;;34.88;26.25;;;18.00;1.00;;;;;;5114119;28;20028;-59
2023/02/23 13:43:21;;;;;;;36.78;27.67;;;18.10;1.00;;;;;;5113336;28;20510;-59
2023/02/23 13:46:28;;;;;;;32.67;25.88;;;18.20;1.00;;;;;;5113428;28;20031;-59
2023/02/23 13:48:58;;;;;;;36.03;25.00;;;18.20;1.00;;;;;;5050364;28;20493;-59
2023/02/23 13:51:49;;;;;;;34.50;26.55;;;18.20;1.00;;;;;;5104323;28;20100;-57
2023/02/23 13:54:15;;;;;;;31.92;24.83;;;18.30;1.00;;;;;;5111462;28;20031;-58
2023/02/23 13:56:53;;;;;;;37.53;27.80;;;18.30;1.00;;;;;;5112721;28;20368;-59
2023/02/23 13:59:22;;;;;;;39.38;27.98;;;18.30;1.00;;;;;;5112837;28;20039;-59
2023/02/23 14:01:51;;;;;;;38.22;27.30;;;18.30;1.00;;;;;;5112629;28;20028;-59
2023/02/23 14:04:24;;;;;;;34.72;26.85;;;18.40;1.00;;;;;;5112070;28;20031;-59
2023/02/23 14:06:55;;;;;;;36.15;25.75;;;18.30;1.00;;;;;;5110939;27;20023;-59
2023/02/23 14:09:27;;;;;;;35.35;26.42;;;18.30;1.00;;;;;;5091971;28;20030;-58
2023/02/23 14:12:15;;;;;;;36.45;27.60;;;18.30;1.00;;;;;;5092591;28;20429;-59
2023/02/23 14:14:43;;;;;;;33.97;26.27;;;18.30;1.00;;;;;;5092125;28;20461;-59
2023/02/23 14:17:09;;;;;;;37.28;25.85;;;18.20;1.00;;;;;;5111281;28;20076;-59
2023/02/23 14:19:39;;;;;;;36.05;26.67;;;18.20;1.00;;;;;;5112887;28;20043;-59
2023/02/23 14:22:13;;;;;;;36.05;26.15;;;18.10;1.00;;;;;;5112841;28;20023;-59